Time;durP1;ratioP1;P1;durP2;ratioP2;P2;SDS_P1;SDS_P2;PMS_P1;PMS_P2;Temp;Humidity;BMP_temperature;BMP_pressure;BME280_temperature;BME280_humidity;BME280_pressure;Samples;Min_cycle;Max_cycle;Signal;HPM_P1;HPM_P2
2023/06/04 00:01:24;;;;;;;17.17;7.23;;;;;;;5.47;72.96;97193.66;6056506;29;20241;-89
2023/06/04 00:04:30;;;;;;;9.97;5.77;;;;;;;8.72;73.25;97713.75;6066136;29;20232;-89
2023/06/04 00:07:32;;;;;;;14.30;7.67;;;;;;;9.88;73.01;97902.78;6070631;29;20278;-89
2023/06/04 00:10:35;;;;;;;24.03;11.23;;;;;;;8.94;74.20;97762.59;6044579;29;20238;-89
2023/06/04 00:13:37;;;;;;;17.50;10.47;;;;;;;8.83;73.60;97751.97;6047750;29;20315;-89
2023/06/04 00:16:40;;;;;;;5.97;2.90;;;;;;;9.14;73.71;97772.91;6046838;29;20238;-89
2023/06/04 00:19:43;;;;;;;23.83;14.40;;;;;;;8.89;73.62;97749.19;6041035;29;20236;-89
2023/06/04 00:22:46;;;;;;;15.10;9.33;;;;;;;8.55;73.96;97694.19;6049959;29;20321;-88
2023/06/04 00:25:49;;;;;;;9.37;6.33;;;;;;;9.75;74.46;97885.19;6052350;29;20247;-89
2023/06/04 00:28:54;;;;;;;6.33;4.30;;;;;;;9.50;73.91;97846.31;6041734;29;20316;-89
2023/06/04 00:31:56;;;;;;;6.27;4.30;;;;;;;7.95;73.53;97605.63;6057978;29;20287;-89
2023/06/04 00:35:01;;;;;;;9.77;6.13;;;;;;;7.94;73.70;97604.03;6037945;29;20246;-89
2023/06/04 00:38:13;;;;;;;13.63;7.67;;;;;;;7.50;74.20;97545.09;6053392;29;20237;-89
2023/06/04 00:41:16;;;;;;;31.13;15.33;;;;;;;7.07;74.15;97494.09;6054378;29;20231;-89
2023/06/04 00:44:21;;;;;;;10.33;6.03;;;;;;;8.27;74.49;97699.06;6059479;29;20266;-89
2023/06/04 00:47:25;;;;;;;22.63;8.63;;;;;;;9.57;75.15;97876.28;6047857;29;20264;-89
2023/06/04 00:50:27;;;;;;;7.00;3.17;;;;;;;8.32;74.64;97692.25;6035977;29;20247;-88
2023/06/04 00:53:31;;;;;;;20.27;9.40;;;;;;;7.86;74.65;97630.84;6059515;29;20287;-89
2023/06/04 00:56:38;;;;;;;9.70;5.30;;;;;;;9.42;75.09;97859.16;6065478;29;20250;-89
2023/06/04 00:59:41;;;;;;;33.70;17.03;;;;;;;9.05;75.65;97816.81;6047719;29;20248;-88
2023/06/04 01:02:50;;;;;;;14.87;6.83;;;;;;;8.15;75.48;97703.50;6072945;29;20524;-89
2023/06/04 01:06:04;;;;;;;12.43;6.97;;;;;;;7.21;76.60;97548.53;6058210;29;20226;-89
2023/06/04 01:09:07;;;;;;;4.83;3.03;;;;;;;8.66;76.55;97765.09;6066226;29;20242;-88
2023/06/04 01:12:11;;;;;;;8.20;4.27;;;;;;;9.35;76.24;97861.09;6047675;29;20309;-89
2023/06/04 01:15:14;;;;;;;16.00;6.33;;;;;;;6.98;76.58;97505.00;6046232;29;20322;-88
2023/06/04 01:18:29;;;;;;;7.70;4.27;;;;;;;9.22;77.02;97867.47;6046365;29;20252;-88
2023/06/04 01:21:38;;;;;;;6.30;3.77;;;;;;;7.43;77.38;97594.69;6045523;29;20313;-89
2023/06/04 01:24:45;;;;;;;9.73;4.97;;;;;;;8.44;77.27;97773.56;6044985;29;20231;-89
2023/06/04 01:27:52;;;;;;;9.60;4.37;;;;;;;7.70;78.13;97665.97;6059662;29;20533;-89
2023/06/04 01:30:56;;;;;;;6.47;3.27;;;;;;;9.07;78.50;97867.09;6058580;29;20246;-88
2023/06/04 01:33:59;;;;;;;11.50;4.60;;;;;;;9.03;78.16;97858.75;6048891;29;20317;-89
2023/06/04 01:37:02;;;;;;;7.00;3.60;;;;;;;7.79;78.15;97667.28;6042154;29;20261;-89
2023/06/04 01:40:08;;;;;;;11.97;4.47;;;;;;;8.24;78.37;97722.59;6033682;29;20226;-89
2023/06/04 01:43:12;;;;;;;15.53;5.20;;;;;;;7.80;78.51;97674.19;6041574;29;20231;-89
2023/06/04 01:46:15;;;;;;;6.80;4.10;;;;;;;8.14;78.56;97719.66;6051954;29;20249;-89
2023/06/04 01:49:18;;;;;;;9.87;4.13;;;;;;;8.22;78.24;97732.59;6048720;29;20246;-89
2023/06/04 01:52:21;;;;;;;3.77;2.67;;;;;;;7.43;78.40;97596.56;6042236;29;20329;-89
2023/06/04 01:55:29;;;;;;;6.10;3.33;;;;;;;7.09;78.38;97537.88;6053286;29;20292;-89
2023/06/04 01:58:33;;;;;;;7.10;3.10;;;;;;;7.72;78.93;97640.81;6071232;29;20235;-89
2023/06/04 02:01:36;;;;;;;5.73;3.23;;;;;;;7.65;78.70;97626.84;6061763;29;20241;-89
2023/06/04 02:04:41;;;;;;;3.97;2.93;;;;;;;7.36;78.84;97572.00;6089958;29;20242;-89
2023/06/04 02:07:47;;;;;;;6.03;2.60;;;;;;;7.99;79.32;97673.13;6090519;29;20239;-89
2023/06/04 02:10:50;;;;;;;5.00;3.10;;;;;;;7.88;79.07;97660.63;6056296;29;20247;-89
2023/06/04 02:13:52;;;;;;;6.37;3.17;;;;;;;8.71;79.22;97779.31;6049576;29;20237;-89
2023/06/04 02:16:57;;;;;;;6.30;3.80;;;;;;;9.21;78.73;97850.72;6042952;29;20282;-88
2023/06/04 02:20:01;;;;;;;5.70;3.07;;;;;;;7.18;78.86;97511.88;6049547;29;20239;-89
2023/06/04 02:23:04;;;;;;;13.43;2.90;;;;;;;7.15;78.98;97520.28;6061334;29;20780;-89
2023/06/04 02:26:07;;;;;;;4.90;3.33;;;;;;;8.28;79.19;97702.53;6063718;29;20273;-90
2023/06/04 02:29:10;;;;;;;5.20;2.60;;;;;;;9.48;78.59;97867.03;6041603;29;20323;-89
2023/06/04 02:32:12;;;;;;;3.83;2.90;;;;;;;7.99;78.50;97620.06;6053897;29;20238;-89
2023/06/04 02:35:15;;;;;;;5.20;3.10;;;;;;;8.51;78.63;97697.28;6064033;29;20234;-90
2023/06/04 02:38:17;;;;;;;5.60;3.33;;;;;;;7.37;78.06;97520.59;6042672;29;20563;-89
2023/06/04 02:41:23;;;;;;;4.90;2.83;;;;;;;8.68;78.77;97700.09;6052894;29;20251;-89
2023/06/04 02:44:26;;;;;;;6.47;2.60;;;;;;;9.13;78.50;97752.69;6057261;29;20413;-89
2023/06/04 02:47:29;;;;;;;5.53;2.50;;;;;;;8.55;78.09;97664.97;6046601;29;20245;-89
2023/06/04 02:50:31;;;;;;;5.33;2.97;;;;;;;8.93;77.81;97731.78;6063334;29;20226;-88
2023/06/04 02:53:34;;;;;;;5.67;2.80;;;;;;;9.08;77.46;97733.16;6067789;29;20238;-90
2023/06/04 02:56:37;;;;;;;3.70;2.80;;;;;;;9.16;77.28;97746.94;6041507;29;20247;-89
2023/06/04 02:59:40;;;;;;;5.67;3.10;;;;;;;8.12;77.68;97581.09;6053784;29;20254;-89
2023/06/04 03:02:47;;;;;;;3.03;2.70;;;;;;;10.04;77.26;97852.31;6075694;29;20295;-90
2023/06/04 03:05:52;;;;;;;6.60;2.97;;;;;;;8.19;77.37;97556.09;6091365;29;20248;-89
2023/06/04 03:08:55;;;;;;;3.93;2.77;;;;;;;9.92;77.53;97822.25;6071410;29;20243;-89
2023/06/04 03:12:01;;;;;;;5.43;2.77;;;;;;;8.77;77.50;97626.22;6051691;29;20263;-89
2023/06/04 03:15:05;;;;;;;4.40;3.10;;;;;;;9.86;77.49;97793.94;6073793;29;20255;-90
2023/06/04 03:18:08;;;;;;;4.67;3.33;;;;;;;8.34;77.09;97576.06;6065180;29;20239;-89
2023/06/04 03:21:11;;;;;;;4.87;3.10;;;;;;;8.31;77.10;97558.72;6062290;29;20244;-89
2023/06/04 03:24:16;;;;;;;5.80;3.20;;;;;;;8.77;77.21;97628.88;6075479;29;20216;-90
2023/06/04 03:27:20;;;;;;;11.27;5.67;;;;;;;8.73;77.05;97643.66;6069461;29;20289;-90
2023/06/04 03:30:22;;;;;;;15.80;8.10;;;;;;;8.46;76.86;97584.84;6056236;29;20238;-88
2023/06/04 03:33:37;;;;;;;19.03;8.93;;;;;;;8.85;76.84;97639.13;6073240;29;20235;-89
2023/06/04 03:36:39;;;;;;;8.57;5.03;;;;;;;7.68;76.59;97438.16;6058804;29;20247;-89
2023/06/04 03:39:42;;;;;;;28.47;13.40;;;;;;;8.49;76.55;97558.66;6066174;29;20235;-90
2023/06/04 03:42:49;;;;;;;105.80;44.07;;;;;;;8.85;76.88;97570.06;6052722;29;20738;-89
2023/06/04 03:45:54;;;;;;;113.57;53.13;;;;;;;8.59;76.39;97520.91;6057786;29;20224;-90
2023/06/04 03:48:58;;;;;;;16.77;10.27;;;;;;;8.81;76.52;97549.50;6052002;29;20248;-90
2023/06/04 03:52:03;;;;;;;6.90;4.57;;;;;;;8.59;76.20;97514.78;6032276;29;20716;-90
2023/06/04 03:55:07;;;;;;;4.43;3.00;;;;;;;9.81;76.10;97696.19;6059691;29;20240;-89
2023/06/04 03:58:11;;;;;;;4.87;3.40;;;;;;;10.18;76.06;97749.06;6057581;29;20268;-89
2023/06/04 04:01:18;;;;;;;5.87;3.47;;;;;;;10.26;76.36;97747.91;6035119;29;20273;-89
2023/06/04 04:04:29;;;;;;;4.00;2.80;;;;;;;10.54;76.11;97792.34;6064480;29;20420;-89
2023/06/04 04:07:31;;;;;;;4.37;3.40;;;;;;;10.49;75.94;97782.44;6060068;29;20322;-88
2023/06/04 04:10:34;;;;;;;5.97;3.93;;;;;;;10.11;76.35;97739.59;6057227;29;20254;-89
2023/06/04 04:13:38;;;;;;;8.40;4.13;;;;;;;11.19;77.02;97879.88;6053760;29;20236;-90
2023/06/04 04:16:42;;;;;;;19.43;11.73;;;;;;;9.60;76.32;97658.78;6052118;29;20255;-89
2023/06/04 04:19:47;;;;;;;21.97;14.40;;;;;;;10.56;76.53;97776.94;6056566;29;20230;-89
2023/06/04 04:22:49;;;;;;;12.33;7.40;;;;;;;10.64;76.69;97819.19;6043276;29;20225;-90
2023/06/04 04:25:56;;;;;;;9.70;7.03;;;;;;;10.27;76.56;97715.72;6067319;29;20229;-89
2023/06/04 04:29:00;;;;;;;10.07;6.53;;;;;;;10.45;76.58;97735.22;6054839;29;20729;-89
2023/06/04 04:32:10;;;;;;;10.47;6.70;;;;;;;11.13;76.99;97840.00;6051639;29;20247;-89
2023/06/04 04:35:18;;;;;;;10.20;7.07;;;;;;;9.79;76.98;97631.75;6054416;29;20241;-90
2023/06/04 04:38:23;;;;;;;11.70;7.03;;;;;;;11.51;77.41;97895.31;6044366;29;20234;-89
2023/06/04 04:41:34;;;;;;;11.70;7.23;;;;;;;10.43;77.45;97722.09;6052157;29;20229;-89
2023/06/04 04:44:38;;;;;;;11.33;7.17;;;;;;;10.30;77.08;97699.28;6050170;29;20239;-90
2023/06/04 04:47:41;;;;;;;10.20;6.73;;;;;;;10.09;77.65;97644.81;6045240;29;20232;-89
2023/06/04 04:50:45;;;;;;;10.73;7.20;;;;;;;9.95;77.20;97638.19;6050389;29;20240;-89
2023/06/04 04:53:48;;;;;;;10.50;6.30;;;;;;;10.87;77.37;97766.81;6056538;29;20228;-90
2023/06/04 04:56:51;;;;;;;11.67;6.40;;;;;;;10.31;77.01;97663.59;6038870;29;20327;-89
2023/06/04 05:00:16;;;;;;;12.80;7.10;;;;;;;10.20;76.09;97627.19;6058651;29;20353;-90
2023/06/04 05:03:21;;;;;;;7.67;5.20;;;;;;;11.60;76.07;97827.16;6047764;29;20256;-90
2023/06/04 05:06:24;;;;;;;5.97;4.30;;;;;;;11.17;74.63;97747.84;6048005;29;20311;-89
2023/06/04 05:09:27;;;;;;;11.90;4.83;;;;;;;10.88;74.65;97689.28;6042951;29;20236;-90
2023/06/04 05:12:33;;;;;;;8.63;4.67;;;;;;;12.47;70.42;97909.31;6056087;29;20233;-90
2023/06/04 05:15:39;;;;;;;6.10;4.07;;;;;;;10.31;68.20;97561.63;6044964;29;20324;-90
2023/06/04 05:18:44;;;;;;;6.33;3.73;;;;;;;12.02;67.55;97816.84;6037825;29;20804;-91
2023/06/04 05:21:53;;;;;;;9.00;3.80;;;;;;;10.88;67.72;97641.31;6077801;29;20240;-91
2023/06/04 05:24:59;;;;;;;9.50;3.57;;;;;;;11.41;67.69;97708.44;6038539;29;20235;-92
2023/06/04 05:28:01;;;;;;;7.33;4.17;;;;;;;10.73;67.11;97614.44;6046792;29;20247;-94
2023/06/04 05:31:04;;;;;;;4.80;3.30;;;;;;;12.50;67.54;97875.91;6043955;29;20232;-90
2023/06/04 05:34:11;;;;;;;6.27;3.63;;;;;;;10.93;67.67;97624.59;6058797;29;20705;-89
2023/06/04 05:37:29;;;;;;;4.60;3.10;;;;;;;11.74;68.05;97745.72;6063502;29;20720;-89
2023/06/04 05:40:32;;;;;;;5.87;3.80;;;;;;;12.99;69.93;97948.13;6047155;29;20327;-89
2023/06/04 05:43:36;;;;;;;5.23;3.57;;;;;;;13.03;70.54;97942.03;6043469;29;20327;-90
2023/06/04 05:46:40;;;;;;;5.40;3.30;;;;;;;12.35;71.57;97842.63;6063814;29;20225;-90
2023/06/04 05:49:45;;;;;;;3.33;2.77;;;;;;;11.59;71.69;97732.97;6049379;29;20240;-90
2023/06/04 05:52:49;;;;;;;6.17;3.57;;;;;;;12.69;70.90;97874.53;6052122;29;20634;-91
2023/06/04 05:55:51;;;;;;;7.87;3.90;;;;;;;12.18;68.23;97811.69;6031586;29;20252;-92
2023/06/04 05:58:56;;;;;;;6.47;4.10;;;;;;;12.14;67.30;97763.31;6058526;29;20221;-91
2023/06/04 06:02:02;;;;;;;6.03;3.40;;;;;;;11.35;67.80;97657.69;6063512;29;20225;-91
2023/06/04 06:05:08;;;;;;;4.77;3.47;;;;;;;12.47;69.30;97826.47;6065191;29;20245;-91
2023/06/04 06:08:11;;;;;;;6.63;3.33;;;;;;;13.42;68.74;97947.28;6041977;29;20240;-89
2023/06/04 06:11:16;;;;;;;3.80;3.40;;;;;;;12.55;67.99;97862.63;6050220;29;20244;-89
2023/06/04 06:14:18;;;;;;;4.70;3.17;;;;;;;13.07;69.07;97904.91;6046679;29;20236;-88
2023/06/04 06:17:21;;;;;;;9.10;4.13;;;;;;;11.73;68.96;97704.06;6059078;29;20303;-93
2023/06/04 06:20:29;;;;;;;5.17;3.93;;;;;;;10.04;67.26;97391.88;6042286;29;20256;-93
2023/06/04 06:23:32;;;;;;;5.10;4.10;;;;;;;13.40;66.93;97952.09;6065653;29;20228;-83
2023/06/04 06:26:37;;;;;;;6.33;4.67;;;;;;;12.63;65.84;97830.91;6055334;29;20381;-85
2023/06/04 06:29:43;;;;;;;6.20;4.30;;;;;;;13.59;66.21;97963.22;6044957;29;20243;-87
2023/06/04 06:32:48;;;;;;;7.43;3.70;;;;;;;12.07;66.23;97717.31;6055441;29;20300;-86
2023/06/04 06:35:53;;;;;;;5.73;3.93;;;;;;;13.35;66.01;97915.38;6058547;29;20271;-85
2023/06/04 06:38:56;;;;;;;7.47;3.77;;;;;;;13.51;65.47;97935.06;6065108;29;20930;-86
2023/06/04 06:41:59;;;;;;;8.00;4.60;;;;;;;11.99;64.78;97677.69;6055017;29;20385;-84
2023/06/04 06:45:08;;;;;;;5.03;3.93;;;;;;;13.50;65.72;97901.31;6047857;29;20240;-89
2023/06/04 06:48:10;;;;;;;7.23;4.53;;;;;;;13.18;65.29;97851.22;6049927;29;20227;-86
2023/06/04 06:51:13;;;;;;;7.43;4.27;;;;;;;13.73;64.87;97926.94;6060642;29;20228;-85
2023/06/04 06:54:16;;;;;;;6.33;4.10;;;;;;;13.86;63.80;97958.63;6071407;29;20272;-88
2023/06/04 07:02:11;;;;;;;4.73;3.53;;;;;;;14.05;63.85;97953.69;6053584;29;20237;-88
2023/06/04 07:05:16;;;;;;;9.57;5.27;;;;;;;14.29;63.94;97969.41;6061863;29;20232;-87
2023/06/04 07:08:21;;;;;;;6.43;4.53;;;;;;;14.41;63.88;97970.78;6053255;29;20233;-89
2023/06/04 07:11:25;;;;;;;8.47;4.10;;;;;;;14.05;64.04;97893.97;6052128;29;20736;-87
2023/06/04 07:14:29;;;;;;;8.83;5.07;;;;;;;14.15;63.08;97915.44;6046579;29;20231;-88
2023/06/04 07:17:32;;;;;;;9.43;5.93;;;;;;;13.92;63.63;97896.00;6060205;29;20318;-88
2023/06/04 07:21:10;;;;;;;5.63;4.43;;;;;;;12.58;63.63;97659.03;6057772;29;20265;-85
2023/06/04 07:24:13;;;;;;;7.20;5.13;;;;;;;14.59;63.66;97979.53;6075436;29;20228;-87
2023/06/04 07:27:17;;;;;;;6.97;5.07;;;;;;;12.51;63.36;97671.78;6076787;29;20220;-85
2023/06/04 07:30:20;;;;;;;14.47;5.20;;;;;;;14.25;63.65;97946.84;6093158;29;20220;-82
2023/06/04 07:33:22;;;;;;;7.03;5.13;;;;;;;13.98;63.34;97871.94;6049206;29;20231;-86
2023/06/04 07:36:25;;;;;;;8.07;5.17;;;;;;;14.08;63.33;97872.00;6085995;29;20255;-85
2023/06/04 07:39:28;;;;;;;6.50;4.40;;;;;;;14.40;63.08;97907.53;6088532;29;20234;-85
2023/06/04 07:42:31;;;;;;;6.13;5.20;;;;;;;14.46;62.61;97905.69;6083592;29;20232;-84
2023/06/04 07:45:34;;;;;;;6.03;4.50;;;;;;;14.99;62.75;97980.78;6060142;29;20721;-86
2023/06/04 07:48:37;;;;;;;6.73;4.10;;;;;;;13.79;62.86;97775.97;6078105;29;20287;-85
2023/06/04 07:51:40;;;;;;;5.07;4.10;;;;;;;14.62;62.53;97904.72;6051754;29;20241;-85
2023/06/04 07:54:42;;;;;;;7.27;4.70;;;;;;;15.15;62.25;97980.56;6067217;29;20353;-84
2023/06/04 07:57:45;;;;;;;5.70;4.30;;;;;;;15.21;62.80;97971.44;6066449;29;20242;-85
2023/06/04 08:00:49;;;;;;;6.90;4.43;;;;;;;14.86;63.07;97907.75;6061942;29;20324;-86
2023/06/04 08:03:54;;;;;;;5.17;3.60;;;;;;;15.32;63.28;97968.78;6069281;29;20232;-86
2023/06/04 08:06:58;;;;;;;4.67;4.17;;;;;;;15.21;63.17;97935.75;6064407;29;20319;-88
2023/06/04 08:10:03;;;;;;;6.73;3.67;;;;;;;14.42;62.96;97816.94;6053202;29;20233;-90
2023/06/04 08:13:11;;;;;;;5.00;4.07;;;;;;;15.59;62.47;97990.84;6043390;29;20439;-84
2023/06/04 08:16:14;;;;;;;5.47;4.00;;;;;;;15.55;62.80;97973.66;6062156;29;20331;-86
2023/06/04 08:19:19;;;;;;;8.80;4.57;;;;;;;14.35;61.85;97776.19;6045621;29;20744;-88
2023/06/04 08:22:27;;;;;;;5.27;4.53;;;;;;;15.52;61.51;97943.84;6060275;29;20615;-83
2023/06/04 08:25:31;;;;;;;4.40;4.00;;;;;;;15.17;62.38;97905.13;6067610;29;20335;-91
2023/06/04 08:28:41;;;;;;;6.03;3.70;;;;;;;15.92;62.56;97996.84;6065434;29;20236;-88
2023/06/04 08:31:44;;;;;;;7.40;4.13;;;;;;;15.98;62.52;97990.38;6055454;29;20252;-87
2023/06/04 08:34:47;;;;;;;6.33;4.70;;;;;;;15.72;62.45;97931.28;6077279;29;20328;-87
2023/06/04 08:37:50;;;;;;;4.73;3.30;;;;;;;16.04;62.35;97989.31;6089431;29;20316;-86
2023/06/04 08:41:15;;;;;;;5.67;4.33;;;;;;;15.74;60.88;97931.81;6071637;29;20259;-91
2023/06/04 08:44:36;;;;;;;7.30;4.30;;;;;;;16.47;60.46;98006.72;6088778;29;20313;-86
2023/06/04 08:47:47;;;;;;;6.03;4.23;;;;;;;16.50;62.14;98008.06;6060924;29;20224;-87
2023/06/04 08:50:52;;;;;;;8.00;4.53;;;;;;;16.69;61.55;98013.69;6075286;29;20241;-86
2023/06/04 08:53:59;;;;;;;5.23;3.70;;;;;;;16.67;61.47;97984.38;6080823;29;20385;-89
2023/06/04 08:57:03;;;;;;;5.33;4.37;;;;;;;16.99;59.96;98002.03;6063576;29;20244;-88
2023/06/04 09:00:08;;;;;;;9.10;4.50;;;;;;;16.97;59.80;97994.25;6055086;29;20244;-85
2023/06/04 09:03:12;;;;;;;7.27;4.47;;;;;;;17.11;59.24;98018.69;6066285;29;20221;-92
2023/06/04 09:06:15;;;;;;;8.27;5.07;;;;;;;16.69;59.42;97971.44;6068948;29;20249;-87
2023/06/04 09:09:20;;;;;;;7.90;4.43;;;;;;;16.76;60.16;97963.91;6043961;29;20256;-88
2023/06/04 09:12:25;;;;;;;13.80;5.07;;;;;;;16.91;60.32;97986.47;6047771;29;20232;-84
2023/06/04 09:15:27;;;;;;;7.50;5.17;;;;;;;16.84;59.96;97964.41;6041492;29;20232;-85
2023/06/04 09:18:30;;;;;;;5.43;4.40;;;;;;;16.63;61.38;97928.69;6046756;29;20277;-86
2023/06/04 09:21:33;;;;;;;6.03;4.50;;;;;;;16.86;59.44;97976.53;6065608;29;20235;-84
2023/06/04 09:24:46;;;;;;;5.10;4.60;;;;;;;17.03;59.84;97990.44;6050717;29;20224;-86
2023/06/04 09:27:49;;;;;;;6.77;4.73;;;;;;;17.03;59.78;97989.63;6044312;29;20229;-84
2023/06/04 09:30:53;;;;;;;10.60;5.27;;;;;;;17.11;60.15;98007.13;6057891;29;20395;-84
2023/06/04 09:33:56;;;;;;;8.87;5.30;;;;;;;17.24;59.98;98031.56;6044869;29;20225;-84
2023/06/04 09:37:00;;;;;;;6.73;4.73;;;;;;;16.31;60.62;97899.50;6067570;29;20808;-82
2023/06/04 09:40:06;;;;;;;7.13;4.50;;;;;;;17.15;61.40;98021.66;6040777;29;20338;-85
2023/06/04 09:47:07;;;;;;;6.67;4.73;;;;;;;17.02;60.97;98034.59;6013691;29;20461;-48
2023/06/04 09:50:13;;;;;;;6.77;4.57;;;;;;;16.97;61.09;98025.75;6012397;29;20714;-46
2023/06/04 09:53:28;;;;;;;6.47;4.53;;;;;;;17.11;62.79;98021.38;6013328;29;20244;-43
2023/06/04 09:56:40;;;;;;;9.40;4.63;;;;;;;17.22;61.55;98038.28;6011207;29;20241;-47
2023/06/04 09:59:49;;;;;;;10.27;5.47;;;;;;;17.24;60.77;98028.88;6010186;29;20294;-51
2023/06/04 10:02:57;;;;;;;6.07;5.10;;;;;;;17.26;61.91;98017.81;6013252;29;20293;-53
2023/06/04 10:06:04;;;;;;;6.63;5.13;;;;;;;17.35;60.60;98021.53;6015244;29;20799;-52
2023/06/04 10:09:09;;;;;;;6.30;4.60;;;;;;;17.47;61.04;98016.63;6009185;29;20308;-50
2023/06/04 10:12:17;;;;;;;6.93;4.77;;;;;;;17.69;60.54;98021.63;6012421;29;20226;-58
2023/06/04 10:15:20;;;;;;;7.47;5.10;;;;;;;17.85;59.92;98011.56;6025883;29;20215;-50
2023/06/04 10:18:23;;;;;;;5.43;4.60;;;;;;;17.80;60.32;98017.00;6006430;29;20697;-50
2023/06/04 10:21:26;;;;;;;6.07;4.40;;;;;;;17.75;60.96;98009.75;6013981;29;20241;-47
2023/06/04 10:24:28;;;;;;;6.00;4.43;;;;;;;17.96;60.34;98023.88;6011910;29;20241;-46
2023/06/04 10:27:32;;;;;;;5.00;4.00;;;;;;;18.02;59.69;98013.84;6008779;29;20564;-49
2023/06/04 10:30:34;;;;;;;6.33;3.97;;;;;;;18.02;58.48;98001.19;6021283;29;20705;-51
2023/06/04 10:33:38;;;;;;;4.83;4.00;;;;;;;18.32;58.60;98020.88;6015622;29;20234;-49
2023/06/04 10:36:45;;;;;;;7.00;3.97;;;;;;;18.34;57.81;98032.22;6010332;29;20316;-50
2023/06/04 10:39:55;;;;;;;9.10;4.77;;;;;;;18.44;56.94;98025.91;6022027;29;20250;-50
2023/06/04 10:43:05;;;;;;;5.90;3.60;;;;;;;18.29;58.47;98018.78;6015629;29;20238;-47
2023/06/04 10:46:14;;;;;;;9.33;4.10;;;;;;;18.44;57.05;98029.41;6037283;29;20266;-52
2023/06/04 10:49:31;;;;;;;9.20;3.80;;;;;;;18.63;57.59;98037.59;6056970;29;20239;-51
2023/06/04 10:52:35;;;;;;;5.47;3.57;;;;;;;18.28;56.06;98031.47;6053928;29;20240;-49
2023/06/04 10:55:45;;;;;;;8.17;4.20;;;;;;;18.28;57.32;98027.97;6056543;29;20240;-51
2023/06/04 10:58:48;;;;;;;8.00;3.70;;;;;;;18.13;56.81;98015.41;6051709;29;20252;-50
2023/06/04 11:01:52;;;;;;;6.00;3.67;;;;;;;18.28;56.57;98039.53;6054935;29;20236;-51
2023/06/04 11:05:07;;;;;;;5.30;3.27;;;;;;;18.27;57.06;98040.63;6052718;29;20241;-51
2023/06/04 11:08:13;;;;;;;3.87;2.70;;;;;;;18.22;56.39;98035.25;6050581;29;20241;-51
2023/06/04 11:11:17;;;;;;;4.23;3.20;;;;;;;18.26;56.36;98039.00;6056172;29;20640;-49
2023/06/04 11:14:20;;;;;;;4.60;3.03;;;;;;;18.39;56.72;98034.88;6050525;29;20233;-49
2023/06/04 11:17:23;;;;;;;4.07;2.97;;;;;;;18.27;56.39;98013.66;6052858;29;20628;-49
2023/06/04 11:20:27;;;;;;;4.83;2.90;;;;;;;18.49;56.07;98044.75;6047475;29;20233;-50
2023/06/04 11:23:30;;;;;;;9.17;3.10;;;;;;;18.56;54.70;98047.91;6056403;29;20252;-52
2023/06/04 11:26:37;;;;;;;8.57;3.07;;;;;;;18.55;54.94;98036.31;6054057;29;20240;-47
2023/06/04 11:29:48;;;;;;;7.13;3.20;;;;;;;18.60;55.60;98031.97;6063474;29;20747;-51
2023/06/04 11:33:01;;;;;;;3.83;2.60;;;;;;;18.84;56.46;98032.03;6053586;29;20289;-51
2023/06/04 11:36:04;;;;;;;2.90;2.40;;;;;;;18.93;56.39;98035.72;6052340;29;20712;-50
2023/06/04 11:39:07;;;;;;;7.97;2.63;;;;;;;18.81;56.84;98020.69;6053292;29;20601;-51
2023/06/04 11:42:10;;;;;;;3.43;2.40;;;;;;;18.86;55.49;98046.03;6053701;29;20224;-51
2023/06/04 11:45:14;;;;;;;8.27;2.23;;;;;;;18.68;56.02;98044.84;6058524;29;20720;-51
2023/06/04 11:48:16;;;;;;;3.07;2.20;;;;;;;18.64;56.10;98050.00;6054132;29;20257;-52
2023/06/04 11:51:21;;;;;;;4.80;2.30;;;;;;;18.64;55.55;98044.59;6051757;29;20703;-51
2023/06/04 11:54:23;;;;;;;3.80;2.23;;;;;;;18.63;54.90;98053.00;6054868;29;20372;-50
2023/06/04 11:57:25;;;;;;;2.90;2.00;;;;;;;18.51;55.19;98024.47;6053452;29;20237;-49
2023/06/04 12:00:30;;;;;;;3.17;1.77;;;;;;;18.70;54.96;98037.28;6030488;29;20236;-51
2023/06/04 12:03:37;;;;;;;2.50;2.03;;;;;;;18.83;55.37;98054.72;6070141;29;20712;-51
2023/06/04 12:06:54;;;;;;;2.33;2.00;;;;;;;18.81;54.79;98057.69;6053563;29;20246;-51
2023/06/04 12:10:06;;;;;;;2.73;2.03;;;;;;;18.68;53.91;98056.47;6053103;29;20248;-50
2023/06/04 12:13:09;;;;;;;4.73;2.23;;;;;;;18.49;53.04;98059.06;6054670;29;20232;-51
2023/06/04 12:16:15;;;;;;;3.03;2.10;;;;;;;18.64;53.56;98050.00;6057727;29;20249;-50
2023/06/04 12:19:17;;;;;;;7.40;2.40;;;;;;;18.56;52.37;98053.31;6051479;29;20252;-51
2023/06/04 12:22:20;;;;;;;5.23;2.60;;;;;;;18.51;53.72;98062.25;6052166;29;20233;-51
2023/06/04 12:25:27;;;;;;;2.63;1.80;;;;;;;18.60;54.64;98062.44;6053886;29;20248;-51
2023/06/04 12:28:30;;;;;;;2.57;2.10;;;;;;;18.72;54.80;98059.41;6053685;29;20244;-49
2023/06/04 12:31:33;;;;;;;4.10;2.23;;;;;;;18.85;54.00;98057.94;6049900;29;20246;-51
2023/06/04 12:34:38;;;;;;;3.57;1.97;;;;;;;18.88;53.64;98060.88;6052042;29;20237;-48
2023/06/04 12:37:41;;;;;;;3.50;2.47;;;;;;;18.70;52.79;98031.91;6052351;29;20240;-50
2023/06/04 12:40:44;;;;;;;6.00;2.00;;;;;;;18.80;53.68;98051.47;6053225;29;20244;-51
2023/06/04 12:43:46;;;;;;;3.43;2.10;;;;;;;18.81;53.69;98054.97;6052699;29;20336;-51
2023/06/04 12:46:48;;;;;;;2.43;1.83;;;;;;;18.69;54.95;98047.28;6050612;29;20360;-51
2023/06/04 12:49:52;;;;;;;2.93;1.67;;;;;;;18.03;54.68;97940.81;6053166;29;20245;-51
2023/06/04 12:52:54;;;;;;;1.93;1.70;;;;;;;18.76;54.64;98046.94;6049596;29;20251;-52
2023/06/04 12:55:57;;;;;;;3.57;1.97;;;;;;;18.70;55.04;98038.09;6056802;29;20300;-50
2023/06/04 12:59:00;;;;;;;3.47;2.03;;;;;;;18.85;55.79;98050.63;6052216;29;20338;-51
2023/06/04 13:02:02;;;;;;;2.87;1.97;;;;;;;18.85;55.46;98047.94;6051042;29;20327;-50
2023/06/04 13:05:05;;;;;;;3.33;2.53;;;;;;;18.94;56.49;98046.22;6054800;29;20239;-52
2023/06/04 13:08:08;;;;;;;2.93;2.20;;;;;;;18.92;54.99;98056.50;6051847;29;20242;-49
2023/06/04 13:11:10;;;;;;;6.43;2.10;;;;;;;18.89;56.02;98042.78;6066636;29;20229;-52
2023/06/04 13:14:12;;;;;;;4.57;2.27;;;;;;;18.97;54.19;98050.25;6051832;29;20239;-50
2023/06/04 13:17:15;;;;;;;2.50;1.83;;;;;;;18.88;54.29;98030.38;6048518;29;20365;-55
2023/06/04 13:20:24;;;;;;;5.17;2.30;;;;;;;19.11;53.79;98040.34;6052759;29;20758;-55
2023/06/04 13:23:27;;;;;;;3.37;2.03;;;;;;;18.69;53.26;98024.91;6054426;29;20232;-55
2023/06/04 13:26:49;;;;;;;6.60;2.40;;;;;;;18.66;55.37;98045.13;6056431;29;20239;-55
2023/06/04 13:29:52;;;;;;;3.57;1.93;;;;;;;18.71;55.65;98055.88;6049590;29;20243;-54
2023/06/04 13:32:54;;;;;;;3.30;2.13;;;;;;;18.74;55.96;98047.22;6051638;29;20248;-55
2023/06/04 13:35:56;;;;;;;2.50;2.00;;;;;;;18.67;53.89;98035.13;6051291;29;20635;-55
2023/06/04 13:38:59;;;;;;;2.60;2.00;;;;;;;18.64;54.94;98041.09;6063357;29;20251;-52
2023/06/04 13:42:02;;;;;;;2.57;1.67;;;;;;;18.65;54.87;98038.13;6049601;29;20248;-52
2023/06/04 13:45:05;;;;;;;5.13;2.50;;;;;;;18.70;54.74;98032.69;6067155;29;20635;-51
2023/06/04 13:48:08;;;;;;;4.90;2.17;;;;;;;18.78;55.52;98042.88;6050417;29;20217;-54
2023/06/04 13:51:11;;;;;;;4.67;2.27;;;;;;;18.84;54.31;98046.31;6052551;29;20225;-51
2023/06/04 13:54:14;;;;;;;3.73;2.10;;;;;;;18.87;54.78;98043.06;6063982;29;20963;-53
2023/06/04 13:57:17;;;;;;;5.77;2.60;;;;;;;18.90;55.23;98047.06;6067028;29;20223;-53
2023/06/04 14:00:20;;;;;;;4.07;2.23;;;;;;;19.00;54.76;98042.34;6050527;29;20249;-53
2023/06/04 14:03:23;;;;;;;4.27;2.40;;;;;;;18.86;54.73;98003.63;6052125;29;20236;-52
2023/06/04 14:06:26;;;;;;;3.77;2.20;;;;;;;19.17;54.68;98044.59;6053586;29;20384;-51
2023/06/04 14:09:28;;;;;;;3.97;1.97;;;;;;;19.23;53.15;98048.84;6067307;29;20232;-52
2023/06/04 14:12:30;;;;;;;2.33;2.13;;;;;;;18.99;54.18;98056.16;6049917;29;20313;-54
2023/06/04 14:15:33;;;;;;;4.70;2.43;;;;;;;19.02;54.95;98061.00;6049444;29;20612;-53
2023/06/04 14:18:36;;;;;;;6.03;2.10;;;;;;;19.17;53.04;98057.31;6051295;29;20322;-51
2023/06/04 14:21:38;;;;;;;5.33;2.33;;;;;;;19.04;53.75;98056.09;6051710;29;20251;-52
2023/06/04 14:24:42;;;;;;;4.87;2.20;;;;;;;18.89;54.77;98062.47;6053668;29;20244;-53
2023/06/04 14:27:44;;;;;;;4.00;2.53;;;;;;;18.85;53.53;98064.13;6050431;29;20252;-53
2023/06/04 14:30:47;;;;;;;3.57;2.20;;;;;;;18.62;54.87;98067.56;6049284;29;20229;-54
2023/06/04 14:33:50;;;;;;;4.27;2.50;;;;;;;18.68;54.77;98071.84;6049413;29;20233;-51
2023/06/04 14:36:52;;;;;;;3.70;2.30;;;;;;;18.34;55.03;98069.16;6049560;29;20236;-52
2023/06/04 14:39:54;;;;;;;4.43;2.23;;;;;;;18.21;55.98;98074.09;6048936;29;20336;-53